createdAt,value
2018-04-24T00:00:40.737Z,14.27
2018-04-24T00:01:46.509Z,14.24
2018-04-24T00:02:52.282Z,14.22
2018-04-24T00:03:58.188Z,14.20
2018-04-24T00:05:04.030Z,14.18
2018-04-24T00:06:09.855Z,14.17
2018-04-24T00:07:16.771Z,14.17
2018-04-24T00:08:22.588Z,14.17
2018-04-24T00:09:28.391Z,14.14
2018-04-24T00:10:35.025Z,14.14
2018-04-24T00:11:40.854Z,14.14
2018-04-24T00:12:46.395Z,14.12
2018-04-24T00:13:52.167Z,14.11
2018-04-24T00:14:57.953Z,14.11
2018-04-24T00:16:04.496Z,14.12
2018-04-24T00:17:10.258Z,14.11
2018-04-24T00:18:16.041Z,14.08
2018-04-24T00:19:21.806Z,14.06
2018-04-24T00:20:27.604Z,14.05
2018-04-24T00:21:33.366Z,14.05
2018-04-24T00:22:39.235Z,14.01
2018-04-24T00:23:45.034Z,14.00
2018-04-24T00:24:50.899Z,13.95
2018-04-24T00:25:56.686Z,13.95
2018-04-24T00:27:03.224Z,13.92
2018-04-24T00:28:08.997Z,13.90
2018-04-24T00:29:15.567Z,13.90
2018-04-24T00:30:21.347Z,13.87
2018-04-24T00:31:27.153Z,13.86
2018-04-24T00:32:32.925Z,13.85
2018-04-24T00:33:38.702Z,13.82
2018-04-24T00:34:44.477Z,13.82
2018-04-24T00:35:51.014Z,13.82
2018-04-24T00:36:56.815Z,13.78
2018-04-24T00:38:02.607Z,13.77
2018-04-24T00:39:09.175Z,13.76
2018-04-24T00:40:15.711Z,13.75
2018-04-24T00:41:21.490Z,13.75
2018-04-24T00:42:27.275Z,13.71
2018-04-24T00:43:33.065Z,13.70
2018-04-24T00:45:47.995Z,13.72
2018-04-24T00:46:53.923Z,13.73
2018-04-24T00:47:59.723Z,13.74
2018-04-24T00:49:05.227Z,13.70
2018-04-24T00:50:11.167Z,13.68
2018-04-24T00:51:17.729Z,13.71
2018-04-24T00:52:23.513Z,13.66
2018-04-24T00:53:41.063Z,13.65
2018-04-24T00:54:46.834Z,13.64
2018-04-24T00:55:52.627Z,13.65
2018-04-24T00:56:58.398Z,13.63
2018-04-24T00:58:04.167Z,13.60
2018-04-24T00:59:10.732Z,13.59
2018-04-24T01:00:17.291Z,13.57
2018-04-24T01:01:23.875Z,13.51
2018-04-24T01:02:29.633Z,13.49
2018-04-24T01:03:35.400Z,13.48
2018-04-24T01:04:41.196Z,13.45
2018-04-24T01:05:46.966Z,13.41
2018-04-24T01:06:52.732Z,13.40
2018-04-24T01:07:58.499Z,13.37
2018-04-24T01:09:03.491Z,13.36
2018-04-24T01:10:09.273Z,13.34
2018-04-24T01:11:15.822Z,13.35
2018-04-24T01:12:21.596Z,13.33
2018-04-24T01:13:27.362Z,13.30
2018-04-24T01:14:33.127Z,13.30
2018-04-24T01:15:38.930Z,13.28
2018-04-24T01:16:44.706Z,13.25
2018-04-24T01:17:50.478Z,13.24
2018-04-24T01:18:57.015Z,13.21
2018-04-24T01:20:02.779Z,13.20
2018-04-24T01:21:09.135Z,13.19
2018-04-24T01:22:15.704Z,13.18
2018-04-24T01:23:22.227Z,13.18
2018-04-24T01:24:28.005Z,13.16
2018-04-24T01:25:34.561Z,13.17
2018-04-24T01:26:41.118Z,13.15
2018-04-24T01:27:47.652Z,13.16
2018-04-24T01:28:53.231Z,13.12
2018-04-24T01:29:59.763Z,13.14
2018-04-24T01:31:05.522Z,13.12
2018-04-24T01:32:12.089Z,13.10
2018-04-24T01:33:18.635Z,13.09
2018-04-24T01:34:25.175Z,13.08
2018-04-24T01:35:31.156Z,13.07
2018-04-24T01:36:37.691Z,13.08
2018-04-24T01:37:43.485Z,13.07
2018-04-24T01:38:50.023Z,13.07
2018-04-24T01:39:55.798Z,13.03
2018-04-24T01:41:01.564Z,13.04
2018-04-24T01:42:07.010Z,13.04
2018-04-24T01:43:12.799Z,13.03
2018-04-24T01:44:18.572Z,13.04
2018-04-24T01:45:24.337Z,13.06
2018-04-24T01:46:29.873Z,13.06
2018-04-24T01:47:35.431Z,13.06
2018-04-24T01:48:41.995Z,13.05
2018-04-24T01:49:48.550Z,13.04
2018-04-24T01:50:55.091Z,13.05
2018-04-24T01:52:00.878Z,13.06
2018-04-24T01:53:06.643Z,13.07
2018-04-24T01:54:12.429Z,13.07
2018-04-24T01:55:18.977Z,13.04
2018-04-24T01:56:26.064Z,13.04
2018-04-24T01:57:32.605Z,13.02
2018-04-24T01:58:38.377Z,12.99
2018-04-24T01:59:44.166Z,12.98
2018-04-24T02:00:49.960Z,12.97
2018-04-24T02:01:56.492Z,12.97
2018-04-24T02:03:01.935Z,12.95
2018-04-24T02:04:07.705Z,12.97
2018-04-24T02:05:14.251Z,12.95
2018-04-24T02:06:20.554Z,12.94
2018-04-24T02:07:26.114Z,12.94
2018-04-24T02:08:31.885Z,12.93
2018-04-24T02:09:38.416Z,12.93
2018-04-24T02:10:44.218Z,12.94
2018-04-24T02:11:49.983Z,12.95
2018-04-24T02:12:55.756Z,12.95
2018-04-24T02:14:01.287Z,12.94
2018-04-24T02:15:07.049Z,12.93
2018-04-24T02:16:13.611Z,12.94
2018-04-24T02:17:20.152Z,12.94
2018-04-24T02:18:25.932Z,12.95
2018-04-24T02:19:31.703Z,12.95
2018-04-24T02:20:37.516Z,12.91
2018-04-24T02:21:43.313Z,12.91
2018-04-24T02:22:49.118Z,12.92
2018-04-24T02:23:54.886Z,12.94
2018-04-24T02:25:00.697Z,12.95
2018-04-24T02:26:06.664Z,12.93
2018-04-24T02:27:12.461Z,12.92
2018-04-24T02:28:18.994Z,12.93
2018-04-24T02:29:24.767Z,12.95
2018-04-24T02:30:30.540Z,12.96
2018-04-24T02:31:36.299Z,12.95
2018-04-24T02:32:41.885Z,12.92
2018-04-24T02:33:48.421Z,12.90
2018-04-24T02:34:54.203Z,12.92
2018-04-24T02:35:59.977Z,12.92
2018-04-24T02:37:05.745Z,12.90
2018-04-24T02:38:11.413Z,12.89
2018-04-24T02:39:17.947Z,12.85
2018-04-24T02:40:23.815Z,12.83
2018-04-24T02:41:29.738Z,12.85
2018-04-24T02:42:35.505Z,12.86
2018-04-24T02:43:42.075Z,12.88
2018-04-24T02:44:47.863Z,12.86
2018-04-24T02:45:53.664Z,12.81
2018-04-24T02:46:59.444Z,12.82
2018-04-24T02:48:04.876Z,12.84
2018-04-24T02:49:10.660Z,12.85
2018-04-24T02:50:17.208Z,12.82
2018-04-24T02:51:23.747Z,12.80
2018-04-24T02:52:29.511Z,12.79
2018-04-24T02:53:36.041Z,12.76
2018-04-24T02:54:41.879Z,12.77
2018-04-24T02:55:47.649Z,12.77
2018-04-24T02:56:54.929Z,12.79
2018-04-24T02:58:00.703Z,12.77
2018-04-24T02:59:06.141Z,12.76
2018-04-24T03:00:11.930Z,12.74
2018-04-24T03:01:17.698Z,12.72
2018-04-24T03:02:24.247Z,12.69
2018-04-24T03:03:30.026Z,12.68
2018-04-24T03:04:35.791Z,12.68
2018-04-24T03:05:41.591Z,12.69
2018-04-24T03:06:47.375Z,12.65
2018-04-24T03:07:53.148Z,12.65
2018-04-24T03:08:58.920Z,12.66
2018-04-24T03:10:04.130Z,12.67
2018-04-24T03:11:10.695Z,12.67
2018-04-24T03:12:17.244Z,12.66
2018-04-24T03:13:23.025Z,12.64
2018-04-24T03:14:28.796Z,12.62
2018-04-24T03:15:34.566Z,12.60
2018-04-24T03:16:41.135Z,12.61
2018-04-24T03:17:46.900Z,12.60
2018-04-24T03:18:52.667Z,12.61
2018-04-24T03:19:58.444Z,12.62
2018-04-24T03:21:04.214Z,12.65
2018-04-24T03:22:10.770Z,12.66
2018-04-24T03:23:17.356Z,12.67
2018-04-24T03:24:23.124Z,12.65
2018-04-24T03:25:28.915Z,12.64
2018-04-24T03:26:35.452Z,12.66
2018-04-24T03:27:41.263Z,12.64
2018-04-24T03:28:47.348Z,12.59
2018-04-24T03:29:53.138Z,12.57
2018-04-24T03:30:58.908Z,12.56
2018-04-24T03:32:04.675Z,12.55
2018-04-24T03:33:10.467Z,12.53
2018-04-24T03:34:16.457Z,12.53
2018-04-24T03:35:22.230Z,12.53
2018-04-24T03:36:28.763Z,12.53
2018-04-24T03:37:34.587Z,12.54
2018-04-24T03:38:40.373Z,12.55
2018-04-24T03:39:46.145Z,12.54
2018-04-24T03:40:51.914Z,12.53
2018-04-24T03:41:57.938Z,12.49
2018-04-24T03:43:03.704Z,12.44
2018-04-24T03:44:09.547Z,12.47
2018-04-24T03:45:14.750Z,12.47
2018-04-24T03:46:20.523Z,12.49
2018-04-24T03:47:26.303Z,12.48
2018-04-24T03:48:32.835Z,12.49
2018-04-24T03:49:38.643Z,12.48
2018-04-24T03:50:44.414Z,12.47
2018-04-24T03:51:50.182Z,12.47
2018-04-24T03:52:56.721Z,12.46
2018-04-24T03:54:02.499Z,12.43
2018-04-24T03:55:08.287Z,12.39
2018-04-24T03:56:14.062Z,12.39
2018-04-24T03:57:20.609Z,12.40
2018-04-24T03:58:26.586Z,12.40
2018-04-24T03:59:33.158Z,12.36
2018-04-24T04:00:39.008Z,12.34
2018-04-24T04:01:44.772Z,12.30
2018-04-24T04:02:50.540Z,12.27
2018-04-24T04:03:56.327Z,12.25
2018-04-24T04:05:02.128Z,12.25
2018-04-24T04:06:07.938Z,12.26
2018-04-24T04:07:13.718Z,12.28
2018-04-24T04:08:20.495Z,12.28
2018-04-24T04:09:27.040Z,12.30
2018-04-24T04:10:32.812Z,12.32
2018-04-24T04:11:38.653Z,12.31
2018-04-24T04:12:45.186Z,12.29
2018-04-24T04:13:51.011Z,12.28
2018-04-24T04:14:56.792Z,12.28
2018-04-24T04:16:03.383Z,12.29
2018-04-24T04:17:27.738Z,12.29
2018-04-24T04:18:51.226Z,12.24
2018-04-24T04:20:14.177Z,12.23
2018-04-24T04:21:37.535Z,12.22
2018-04-24T04:23:00.367Z,12.23
2018-04-24T04:24:23.082Z,12.26
2018-04-24T04:25:28.853Z,12.24
2018-04-24T04:26:34.621Z,12.25
2018-04-24T04:27:40.406Z,12.28
2018-04-24T04:28:46.182Z,12.28
2018-04-24T04:29:52.153Z,12.31
2018-04-24T04:30:57.935Z,12.32
2018-04-24T04:32:03.747Z,12.33
2018-04-24T04:33:09.520Z,12.34
2018-04-24T04:34:15.281Z,12.35
2018-04-24T04:35:21.059Z,12.36
2018-04-24T04:36:26.843Z,12.39
2018-04-24T04:37:33.228Z,12.42
2018-04-24T04:38:38.991Z,12.44
2018-04-24T04:39:44.783Z,12.51
2018-04-24T04:40:51.313Z,12.57
2018-04-24T04:41:57.093Z,12.61
2018-04-24T04:43:02.891Z,12.69
2018-04-24T04:44:08.455Z,12.75
2018-04-24T04:45:14.998Z,12.82
2018-04-24T04:46:21.544Z,12.89
2018-04-24T04:47:27.316Z,12.90
2018-04-24T04:48:33.924Z,12.91
2018-04-24T04:49:39.730Z,12.95
2018-04-24T04:50:46.259Z,13.00
2018-04-24T04:51:52.800Z,13.10
2018-04-24T04:52:58.571Z,13.20
2018-04-24T04:54:05.144Z,13.29
2018-04-24T04:55:11.693Z,13.38
2018-04-24T04:56:17.489Z,13.47
2018-04-24T04:57:23.258Z,13.56
2018-04-24T04:58:29.027Z,13.67
2018-04-24T04:59:35.583Z,13.73
2018-04-24T05:00:42.156Z,13.75
2018-04-24T05:01:48.686Z,13.76
2018-04-24T05:02:54.450Z,13.77
2018-04-24T05:04:01.003Z,13.80
2018-04-24T05:05:07.566Z,13.84
2018-04-24T05:06:14.311Z,13.85
2018-04-24T05:07:20.841Z,13.85
2018-04-24T05:08:26.610Z,13.89
2018-04-24T05:09:33.895Z,13.93
2018-04-24T05:10:39.685Z,13.94
2018-04-24T05:11:45.458Z,13.98
2018-04-24T05:12:51.228Z,13.96
2018-04-24T05:13:57.000Z,13.97
2018-04-24T05:15:02.758Z,13.99
2018-04-24T05:16:08.551Z,14.03
2018-04-24T05:17:14.311Z,14.06
2018-04-24T05:18:20.886Z,14.07
2018-04-24T05:19:26.646Z,14.10
2018-04-24T05:20:32.479Z,14.09
2018-04-24T05:21:38.375Z,14.11
2018-04-24T05:22:44.155Z,14.13
2018-04-24T05:23:50.457Z,14.18
2018-04-24T05:24:56.215Z,14.19
2018-04-24T05:26:01.999Z,14.23
2018-04-24T05:27:07.779Z,14.25
2018-04-24T05:28:13.552Z,14.27
2018-04-24T05:29:19.964Z,14.33
2018-04-24T05:30:25.734Z,14.33
2018-04-24T05:31:31.498Z,14.31
2018-04-24T05:32:38.065Z,14.33
2018-04-24T05:33:44.626Z,14.36
2018-04-24T05:34:51.159Z,14.36
2018-04-24T05:35:56.924Z,14.37
2018-04-24T05:37:03.478Z,14.40
2018-04-24T05:38:09.254Z,14.41
2018-04-24T05:39:15.027Z,14.42
2018-04-24T05:40:20.944Z,14.47
2018-04-24T05:41:26.736Z,14.54
2018-04-24T05:42:33.297Z,14.59
2018-04-24T05:43:39.092Z,14.59
2018-04-24T05:44:44.882Z,14.63
2018-04-24T05:45:50.658Z,14.71
2018-04-24T05:46:56.423Z,14.81
2018-04-24T05:48:02.199Z,14.88
2018-04-24T05:49:08.018Z,14.94
2018-04-24T05:50:13.787Z,15.01
2018-04-24T05:51:20.322Z,15.03
2018-04-24T05:52:26.178Z,15.05
2018-04-24T05:53:32.062Z,15.09
2018-04-24T05:54:38.623Z,15.14
2018-04-24T05:55:44.388Z,15.12
2018-04-24T05:56:50.161Z,15.15
2018-04-24T05:57:55.650Z,15.13
2018-04-24T05:59:01.591Z,15.13
2018-04-24T06:00:07.369Z,15.08
2018-04-24T06:01:13.155Z,15.07
2018-04-24T06:02:19.686Z,15.04
2018-04-24T06:03:25.460Z,15.02
2018-04-24T06:04:31.241Z,14.99
2018-04-24T06:05:37.056Z,14.99
2018-04-24T06:06:43.596Z,14.97
2018-04-24T06:07:49.357Z,15.01
2018-04-24T06:08:55.894Z,15.03
2018-04-24T06:10:02.438Z,15.01
2018-04-24T06:11:08.233Z,15.02
2018-04-24T06:12:13.993Z,15.02
2018-04-24T06:13:19.773Z,15.00
2018-04-24T06:14:25.542Z,14.99
2018-04-24T06:15:32.089Z,14.97
2018-04-24T06:16:37.910Z,14.98
2018-04-24T06:17:43.873Z,14.97
2018-04-24T06:18:49.643Z,14.99
2018-04-24T06:19:56.170Z,15.03
2018-04-24T06:21:01.952Z,15.09
2018-04-24T06:22:07.740Z,15.11
2018-04-24T06:23:13.507Z,15.12
2018-04-24T06:24:20.059Z,15.15
2018-04-24T06:25:25.872Z,15.16
2018-04-24T06:26:31.640Z,15.21
2018-04-24T06:27:37.441Z,15.24
2018-04-24T06:28:43.206Z,15.27
2018-04-24T06:29:48.978Z,15.33
2018-04-24T06:30:54.767Z,15.43
2018-04-24T06:32:00.540Z,15.50
2018-04-24T06:33:06.333Z,15.62
2018-04-24T06:34:12.102Z,15.73
2018-04-24T06:35:17.889Z,15.83
2018-04-24T06:36:24.415Z,15.97
2018-04-24T06:37:30.185Z,16.11
2018-04-24T06:38:36.780Z,16.24
2018-04-24T06:39:42.546Z,16.40
2018-04-24T06:40:48.323Z,16.56
2018-04-24T06:41:54.092Z,16.71
2018-04-24T06:43:01.020Z,16.91
2018-04-24T06:44:06.831Z,17.09
2018-04-24T06:45:12.681Z,17.33
2018-04-24T06:46:18.461Z,17.62
2018-04-24T06:47:24.247Z,17.97
2018-04-24T06:48:31.009Z,18.32
2018-04-24T06:49:36.957Z,18.65
2018-04-24T06:50:42.749Z,18.99
2018-04-24T06:51:48.523Z,19.20
2018-04-24T06:52:55.067Z,19.38
2018-04-24T06:54:00.883Z,19.56
2018-04-24T06:55:06.343Z,19.86
2018-04-24T06:56:12.419Z,20.32
2018-04-24T06:57:18.219Z,20.82
2018-04-24T06:58:24.011Z,21.33
2018-04-24T06:59:29.788Z,21.82
2018-04-24T07:00:35.690Z,22.27
2018-04-24T07:01:41.726Z,22.67
2018-04-24T07:02:48.371Z,23.05
2018-04-24T07:03:54.271Z,23.27
2018-04-24T07:05:00.105Z,23.38
2018-04-24T07:06:05.891Z,23.33
2018-04-24T07:07:11.666Z,23.33
2018-04-24T07:08:18.295Z,23.43
2018-04-24T07:09:24.065Z,23.47
2018-04-24T07:10:30.604Z,23.57
2018-04-24T07:11:37.903Z,23.64
2018-04-24T07:12:44.444Z,23.93
2018-04-24T07:13:51.723Z,24.14
2018-04-24T07:14:57.495Z,24.24
2018-04-24T07:16:03.308Z,24.31
2018-04-24T07:17:09.098Z,24.33
2018-04-24T07:18:14.863Z,24.53
2018-04-24T07:20:38.752Z,24.73
2018-04-24T07:21:44.530Z,24.88
2018-04-24T07:22:51.105Z,24.88
2018-04-24T07:23:56.949Z,25.05
2018-04-24T07:25:02.710Z,25.12
2018-04-24T07:26:08.500Z,25.08
2018-04-24T07:27:15.107Z,25.12
2018-04-24T07:28:21.086Z,24.93
2018-04-24T07:29:26.868Z,24.63
2018-04-24T07:30:32.646Z,24.65
2018-04-24T07:31:38.418Z,24.84
2018-04-24T07:32:44.200Z,24.99
2018-04-24T07:33:49.999Z,25.26
2018-04-24T07:34:55.776Z,25.47
2018-04-24T07:36:02.356Z,25.67
2018-04-24T07:37:08.162Z,25.91
2018-04-24T07:38:14.019Z,26.18
2018-04-24T07:39:20.605Z,26.39
2018-04-24T07:40:26.491Z,26.65
2018-04-24T07:41:32.264Z,26.85
2018-04-24T07:42:38.815Z,26.84
2018-04-24T07:43:45.354Z,26.87
2018-04-24T07:44:51.142Z,26.93
2018-04-24T07:45:56.917Z,27.07
2018-04-24T07:47:02.678Z,27.02
2018-04-24T07:48:08.456Z,26.89
2018-04-24T07:49:14.992Z,26.83
2018-04-24T07:50:20.795Z,26.81
2018-04-24T07:51:26.559Z,26.59
2018-04-24T07:52:32.339Z,26.42
2018-04-24T07:53:38.894Z,26.49
2018-04-24T07:54:45.443Z,26.77
2018-04-24T07:55:52.019Z,26.89
2018-04-24T07:56:58.542Z,27.10
2018-04-24T07:58:04.308Z,27.23
2018-04-24T07:59:10.851Z,27.29
2018-04-24T08:00:16.650Z,27.35
2018-04-24T08:01:22.431Z,27.32
2018-04-24T08:02:28.204Z,27.38
2018-04-24T08:03:34.744Z,27.32
2018-04-24T08:04:40.282Z,27.02
2018-04-24T08:05:46.047Z,26.65
2018-04-24T08:06:52.596Z,26.24
2018-04-24T08:07:58.343Z,26.02
2018-04-24T08:09:03.635Z,25.95
2018-04-24T08:10:09.399Z,25.86
2018-04-24T08:11:15.919Z,25.93
2018-04-24T08:12:21.687Z,26.04
2018-04-24T08:13:27.448Z,26.30
2018-04-24T08:14:34.042Z,26.74
2018-04-24T08:15:40.574Z,27.12
2018-04-24T08:16:47.104Z,27.73
2018-04-24T08:17:52.875Z,27.90
2018-04-24T08:18:58.641Z,28.19
2018-04-24T08:20:05.160Z,28.46
2018-04-24T08:21:10.609Z,28.66
2018-04-24T08:22:16.017Z,28.75
2018-04-24T08:23:21.808Z,28.80
2018-04-24T08:24:28.337Z,28.94
2018-04-24T08:25:34.089Z,28.97
2018-04-24T08:26:40.671Z,28.99
2018-04-24T08:27:47.183Z,28.98
2018-04-24T08:28:53.176Z,29.10
2018-04-24T08:29:59.695Z,29.16
2018-04-24T08:31:05.448Z,29.15
2018-04-24T08:32:11.213Z,29.10
2018-04-24T08:33:17.500Z,28.93
2018-04-24T08:34:23.275Z,29.01
2018-04-24T08:35:29.031Z,28.85
2018-04-24T08:36:34.775Z,28.66
2018-04-24T08:37:40.728Z,28.63
2018-04-24T08:38:46.491Z,28.68
2018-04-24T08:39:52.306Z,28.73
2018-04-24T08:40:58.056Z,28.83
2018-04-24T08:42:04.583Z,28.88
2018-04-24T08:43:10.328Z,29.04
2018-04-24T08:44:16.203Z,29.48
2018-04-24T08:45:22.856Z,30.01
2018-04-24T08:46:31.445Z,30.27
2018-04-24T08:47:37.188Z,30.30
2018-04-24T08:48:43.256Z,30.21
2018-04-24T08:49:49.279Z,30.14
2018-04-24T08:50:55.459Z,30.34
2018-04-24T08:52:02.277Z,30.46
2018-04-24T08:53:08.325Z,30.57
2018-04-24T08:54:14.282Z,30.55
2018-04-24T08:55:20.296Z,30.49
2018-04-24T08:56:26.743Z,30.64
2018-04-24T08:57:32.748Z,30.64
2018-04-24T08:58:38.709Z,30.84
2018-04-24T08:59:44.755Z,30.92
2018-04-24T09:00:50.631Z,30.91
2018-04-24T09:01:56.519Z,30.95
2018-04-24T09:03:04.121Z,31.04
2018-04-24T09:04:10.145Z,31.31
2018-04-24T09:05:15.952Z,31.29
2018-04-24T09:06:21.898Z,31.16
2018-04-24T09:07:27.746Z,31.29
2018-04-24T09:08:33.671Z,31.20
2018-04-24T09:09:40.144Z,31.01
2018-04-24T09:10:46.159Z,30.75
2018-04-24T09:11:53.020Z,30.74
2018-04-24T09:12:59.749Z,30.66
2018-04-24T09:14:05.857Z,30.84
2018-04-24T09:15:12.847Z,31.04
2018-04-24T09:16:18.893Z,31.17
2018-04-24T09:17:24.527Z,31.40
2018-04-24T09:18:30.577Z,31.49
2018-04-24T09:19:36.530Z,31.55
2018-04-24T09:20:42.652Z,31.58
2018-04-24T09:21:49.340Z,31.41
2018-04-24T09:22:55.270Z,31.70
2018-04-24T09:24:01.170Z,31.60
2018-04-24T09:25:07.460Z,31.39
2018-04-24T09:26:13.430Z,31.38
2018-04-24T09:27:19.372Z,31.16
2018-04-24T09:28:26.139Z,31.11
2018-04-24T09:29:31.996Z,31.07
2018-04-24T09:30:38.135Z,30.99
2018-04-24T09:31:43.975Z,31.27
2018-04-24T09:32:49.839Z,31.52
2018-04-24T09:33:55.859Z,31.48
2018-04-24T09:35:02.652Z,31.61
2018-04-24T09:36:08.681Z,31.60
2018-04-24T09:37:14.515Z,31.64
2018-04-24T09:38:21.186Z,31.49
2018-04-24T09:39:27.206Z,31.58
2018-04-24T09:40:33.890Z,31.63
2018-04-24T09:41:39.729Z,31.52
2018-04-24T09:42:46.505Z,31.41
2018-04-24T09:43:52.842Z,31.46
2018-04-24T09:44:59.117Z,31.70
2018-04-24T09:46:04.969Z,31.83
2018-04-24T09:47:11.265Z,31.96
2018-04-24T09:48:17.155Z,32.25
2018-04-24T09:49:23.097Z,32.25
2018-04-24T09:50:28.904Z,32.23
2018-04-24T09:51:34.968Z,32.03
2018-04-24T09:52:41.113Z,32.04
2018-04-24T09:53:48.692Z,31.98
2018-04-24T09:54:54.881Z,32.05
2018-04-24T09:56:00.748Z,32.22
2018-04-24T09:57:06.675Z,31.89
2018-04-24T09:58:12.719Z,31.79
2018-04-24T09:59:18.936Z,31.84
2018-04-24T10:00:30.159Z,31.77
2018-04-24T10:01:36.188Z,31.73
2018-04-24T10:02:42.163Z,31.67
2018-04-24T10:03:48.165Z,31.54
2018-04-24T10:04:54.813Z,31.45
2018-04-24T10:06:00.671Z,31.21
2018-04-24T10:07:07.290Z,30.89
2018-04-24T10:08:13.277Z,30.44
2018-04-24T10:09:19.894Z,30.05
2018-04-24T10:10:26.088Z,29.68
2018-04-24T10:11:32.085Z,29.21
2018-04-24T10:12:37.895Z,28.84
2018-04-24T10:13:44.595Z,28.49
2018-04-24T10:14:50.712Z,28.23
2018-04-24T10:15:56.837Z,27.97
2018-04-24T10:17:02.848Z,27.80
2018-04-24T10:18:08.819Z,27.57
2018-04-24T10:19:15.520Z,27.26
2018-04-24T10:20:22.201Z,27.22
2018-04-24T10:21:28.198Z,27.27
2018-04-24T10:22:34.779Z,27.17
2018-04-24T10:23:40.772Z,26.82
2018-04-24T10:24:46.782Z,26.59
2018-04-24T10:25:52.562Z,26.42
2018-04-24T10:26:58.335Z,26.35
2018-04-24T10:28:04.096Z,26.22
2018-04-24T10:29:10.611Z,26.05
2018-04-24T10:30:16.413Z,26.01
2018-04-24T10:31:22.186Z,25.95
2018-04-24T10:32:27.932Z,25.90
2018-04-24T10:33:33.682Z,25.76
2018-04-24T10:34:39.471Z,25.69
2018-04-24T10:35:45.819Z,25.60
2018-04-24T10:36:52.346Z,25.50
2018-04-24T10:37:58.098Z,25.35
2018-04-24T10:39:03.853Z,25.24
2018-04-24T10:40:09.822Z,25.08
2018-04-24T10:41:15.790Z,25.06
2018-04-24T10:42:21.619Z,24.93
2018-04-24T10:43:27.430Z,24.86
2018-04-24T10:44:33.265Z,24.90
2018-04-24T10:45:39.016Z,24.95
2018-04-24T10:46:44.833Z,24.91
2018-04-24T10:47:51.072Z,24.88
2018-04-24T10:48:57.555Z,24.65
2018-04-24T10:50:03.299Z,24.51
2018-04-24T10:51:09.141Z,24.50
2018-04-24T10:52:14.916Z,24.46
2018-04-24T10:53:21.480Z,24.30
2018-04-24T10:54:28.012Z,24.26
2018-04-24T10:55:33.770Z,24.21
2018-04-24T10:56:40.346Z,24.22
2018-04-24T10:57:46.124Z,24.20
2018-04-24T10:58:51.912Z,24.20
2018-04-24T10:59:57.669Z,24.23
2018-04-24T11:01:03.428Z,24.25
2018-04-24T11:02:09.186Z,24.24
2018-04-24T11:03:14.963Z,24.24
2018-04-24T11:04:20.741Z,24.19
2018-04-24T11:05:26.495Z,24.07
2018-04-24T11:06:32.254Z,23.93
2018-04-24T11:07:38.209Z,23.86
2018-04-24T11:08:43.988Z,23.85
2018-04-24T11:09:50.514Z,23.87
2018-04-24T11:10:56.531Z,23.83
2018-04-24T11:12:02.275Z,23.87
2018-04-24T11:13:08.027Z,23.80
2018-04-24T11:14:13.802Z,23.79
2018-04-24T11:15:19.358Z,23.68
2018-04-24T11:16:24.915Z,23.48
2018-04-24T11:17:30.434Z,23.55
2018-04-24T11:18:37.180Z,23.50
2018-04-24T11:19:42.971Z,23.45
2018-04-24T11:20:48.527Z,23.38
2018-04-24T11:21:54.383Z,23.26
2018-04-24T11:23:00.143Z,23.17
2018-04-24T11:24:05.901Z,23.11
2018-04-24T11:25:12.469Z,23.11
2018-04-24T11:26:19.043Z,23.02
2018-04-24T11:27:24.853Z,22.92
2018-04-24T11:28:30.610Z,22.85
2018-04-24T11:29:37.129Z,22.83
2018-04-24T11:30:42.953Z,22.73
2018-04-24T11:31:48.708Z,22.79
2018-04-24T11:32:54.464Z,22.79
2018-04-24T11:34:00.221Z,22.85
2018-04-24T11:35:05.407Z,22.88
2018-04-24T11:36:11.224Z,22.93
2018-04-24T11:37:17.739Z,22.93
2018-04-24T11:38:23.500Z,22.85
2018-04-24T11:39:29.246Z,22.81
2018-04-24T11:40:35.771Z,22.83
2018-04-24T11:41:41.557Z,22.77
2018-04-24T11:42:48.290Z,22.86
2018-04-24T11:43:54.091Z,22.65
2018-04-24T11:45:00.059Z,22.67
2018-04-24T11:46:05.489Z,22.72
2018-04-24T11:47:11.032Z,22.68
2018-04-24T11:48:16.788Z,22.61
2018-04-24T11:49:22.761Z,22.51
2018-04-24T11:50:29.291Z,22.54
2018-04-24T11:51:35.052Z,22.51
2018-04-24T11:52:40.872Z,22.51
2018-04-24T11:53:46.629Z,22.41
2018-04-24T11:54:53.887Z,22.28
2018-04-24T11:55:59.643Z,22.25
2018-04-24T11:57:05.475Z,22.17
2018-04-24T11:58:12.144Z,22.13
2018-04-24T11:59:19.408Z,22.11
2018-04-24T12:00:25.165Z,22.01
2018-04-24T12:01:30.930Z,21.96
2018-04-24T12:02:37.516Z,21.96
2018-04-24T12:03:43.455Z,21.94
2018-04-24T12:04:49.258Z,21.96
2018-04-24T12:05:55.006Z,21.99
2018-04-24T12:07:00.538Z,21.95
2018-04-24T12:09:08.315Z,21.97
2018-04-24T12:10:13.844Z,21.95
2018-04-24T12:11:19.595Z,21.94
2018-04-24T12:12:25.358Z,21.97
2018-04-24T12:13:31.137Z,21.96
2018-04-24T12:14:36.919Z,21.99
2018-04-24T12:15:42.772Z,22.03
2018-04-24T12:16:48.663Z,21.97
2018-04-24T12:17:54.458Z,22.01
2018-04-24T12:19:00.207Z,22.03
2018-04-24T12:20:06.761Z,22.05
2018-04-24T12:21:12.512Z,22.05
2018-04-24T12:22:18.273Z,22.05
2018-04-24T12:23:24.793Z,21.98
2018-04-24T12:24:30.574Z,21.91
2018-04-24T12:25:37.414Z,21.95
2018-04-24T12:26:43.163Z,21.95
2018-04-24T12:27:48.927Z,22.05
2018-04-24T12:28:55.459Z,21.96
2018-04-24T12:30:01.244Z,21.94
2018-04-24T12:31:07.023Z,21.93
2018-04-24T12:32:12.824Z,21.91
2018-04-24T12:33:19.367Z,21.88
2018-04-24T12:34:25.115Z,21.84
2018-04-24T12:35:31.646Z,21.85
2018-04-24T12:36:37.440Z,21.84
2018-04-24T12:37:43.955Z,21.84
2018-04-24T12:38:50.534Z,21.83
2018-04-24T12:39:56.496Z,21.89
2018-04-24T12:41:03.016Z,21.93
2018-04-24T12:42:08.782Z,21.86
2018-04-24T12:43:15.308Z,21.79
2018-04-24T12:44:21.097Z,21.80
2018-04-24T12:45:27.623Z,21.78
2018-04-24T12:46:34.883Z,21.75
2018-04-24T12:47:40.679Z,21.71
2018-04-24T12:48:47.307Z,21.66
2018-04-24T12:49:53.065Z,21.64
2018-04-24T12:50:59.582Z,21.67
2018-04-24T12:52:05.340Z,21.70
2018-04-24T12:53:11.125Z,21.68
2018-04-24T12:54:16.651Z,21.76
2018-04-24T12:55:23.171Z,21.82
2018-04-24T12:56:28.964Z,21.89
2018-04-24T12:57:34.734Z,21.86
2018-04-24T12:58:40.511Z,21.92
2018-04-24T12:59:47.040Z,21.94
2018-04-24T13:00:52.803Z,21.93
2018-04-24T13:01:58.577Z,21.97
2018-04-24T13:03:05.353Z,22.01
2018-04-24T13:04:11.126Z,22.01
2018-04-24T13:05:16.883Z,21.99
2018-04-24T13:06:22.637Z,21.98
2018-04-24T13:07:29.167Z,21.98
2018-04-24T13:08:34.914Z,21.99
2018-04-24T13:09:40.707Z,21.96
2018-04-24T13:10:47.436Z,21.96
2018-04-24T13:11:53.201Z,22.03
2018-04-24T13:12:58.951Z,22.03
2018-04-24T13:14:05.551Z,22.02
2018-04-24T13:15:11.377Z,22.02
2018-04-24T13:16:18.345Z,21.99
2018-04-24T13:17:25.056Z,21.94
2018-04-24T13:18:30.850Z,21.84
2018-04-24T13:19:36.785Z,21.93
2018-04-24T13:20:43.333Z,21.89
2018-04-24T13:21:49.086Z,21.90
2018-04-24T13:22:55.605Z,21.94
2018-04-24T13:24:02.096Z,21.88
2018-04-24T13:25:08.625Z,21.85
2018-04-24T13:26:14.420Z,21.64
2018-04-24T13:27:20.186Z,21.54
2018-04-24T13:28:25.930Z,21.51
2018-04-24T13:29:31.683Z,21.53
2018-04-24T13:30:37.439Z,21.56
2018-04-24T13:31:44.739Z,21.61
2018-04-24T13:32:50.489Z,21.63
2018-04-24T13:33:57.254Z,21.66
2018-04-24T13:35:03.025Z,21.69
2018-04-24T13:36:08.776Z,21.60
2018-04-24T13:37:14.354Z,21.65
2018-04-24T13:38:21.870Z,21.62
2018-04-24T13:39:27.639Z,21.69
2018-04-24T13:40:33.408Z,21.74
2018-04-24T13:41:39.196Z,21.76
2018-04-24T13:42:44.985Z,21.73
2018-04-24T13:43:50.522Z,21.75
2018-04-24T13:44:56.274Z,21.74
2018-04-24T13:46:02.031Z,21.77
2018-04-24T13:47:09.486Z,21.88
2018-04-24T13:48:15.269Z,21.97
2018-04-24T13:49:21.785Z,22.03
2018-04-24T13:50:27.553Z,21.98
2018-04-24T13:51:33.389Z,21.98
2018-04-24T13:52:39.308Z,21.95
2018-04-24T13:53:45.085Z,21.95
2018-04-24T13:54:50.869Z,22.03
2018-04-24T13:55:56.650Z,22.08
2018-04-24T13:57:02.401Z,22.18
2018-04-24T13:58:08.367Z,22.23
2018-04-24T13:59:14.939Z,22.24
2018-04-24T14:00:20.703Z,22.20
2018-04-24T14:01:26.459Z,22.22
2018-04-24T14:02:32.429Z,22.22
2018-04-24T14:03:38.184Z,22.21
2018-04-24T14:04:43.969Z,22.29
2018-04-24T14:05:49.739Z,22.36
2018-04-24T14:06:55.495Z,22.44
2018-04-24T14:08:01.255Z,22.54
2018-04-24T14:09:08.759Z,22.59
2018-04-24T14:10:14.579Z,22.46
2018-04-24T14:11:21.376Z,22.41
2018-04-24T14:12:28.123Z,22.35
2018-04-24T14:13:33.968Z,22.39
2018-04-24T14:14:40.280Z,22.38
2018-04-24T14:15:46.138Z,22.28